LFBO/TLS METAR and TAF weather

Enter ICAO airport designator
Station Type Date Time Source
LFBO METAR 2024/05/28 22:30 UTC NOAA

LFBO 282230Z AUTO 33004KT CAVOK 17/12 Q1020 NOSIG


Station Type Date Time Source
LFBO Decoded METAR 2024/05/28 22:30 UTC NOAA

Toulouse / Blagnac, France (LFBO) 43-38N 001-22E 153M
May 28, 2024 - 06:30 PM EDT / 2024.05.28 2230 UTC
Wind: from the NNW (330 degrees) at 5 MPH (4 KT):0
Visibility: greater than 7 mile(s):0
Temperature: 62 F (17 C)
Dew Point: 53 F (12 C)
Relative Humidity: 72%
Pressure (altimeter): 30.12 in. Hg (1020 hPa)
ob: LFBO 282230Z AUTO 33004KT CAVOK 17/12 Q1020 NOSIG
cycle: 22

Station Type Date Time Source
LFBO TAF 2024/05/28 18:42 UTC NOAA